Halewood, United Kingdom
Current Conditions -  °F | °C
As of 3:50 AM on Saturday 29 Nov 2014 (Local Time) from EGGP Reporting Station
Few Clouds Few Clouds  
Wind Chill: 44°   Ceiling: Unl
Heat Index: 46°   Visibility: 6mi
Dew Point: 46°   Wind: 6mph
Humidity: 100%   Direction: 100°E
Pressure: 29.77"   Gusts: NA
Location:  53.36°N, 2.83°W
Report Text: EGGP 290350Z 10005KT 9999 FEW018 08/08 Q1008
Loading
Personal Weather Stations






























Interactive Weather Map New forecast layout! Learn more

10-Day Weather Forecast

Advertisements
Track Severe Weather on mobile